createdAt,value
2018-12-16T00:00:39.338Z,945.84
2018-12-16T00:01:39.220Z,945.86
2018-12-16T00:02:39.109Z,945.80
2018-12-16T00:03:39.003Z,945.82
2018-12-16T00:04:38.901Z,945.80
2018-12-16T00:05:38.837Z,945.79
2018-12-16T00:06:38.694Z,945.76
2018-12-16T00:07:38.592Z,945.66
2018-12-16T00:08:38.481Z,945.65
2018-12-16T00:09:38.381Z,945.72
2018-12-16T00:10:38.290Z,945.67
2018-12-16T00:11:38.169Z,945.64
2018-12-16T00:12:38.065Z,945.64
2018-12-16T00:13:37.962Z,945.61
2018-12-16T00:14:37.858Z,945.63
2018-12-16T00:15:37.764Z,945.63
2018-12-16T00:16:37.643Z,945.58
2018-12-16T00:17:37.541Z,945.59
2018-12-16T00:18:37.432Z,945.59
2018-12-16T00:19:37.329Z,945.51
2018-12-16T00:20:37.240Z,945.52
2018-12-16T00:21:37.121Z,945.50
2018-12-16T00:22:37.014Z,945.49
2018-12-16T00:23:36.911Z,945.46
2018-12-16T00:24:36.806Z,945.43
2018-12-16T00:25:36.718Z,945.42
2018-12-16T00:26:36.597Z,945.44
2018-12-16T00:27:36.489Z,945.41
2018-12-16T00:28:36.388Z,945.36
2018-12-16T00:29:36.281Z,945.37
2018-12-16T00:30:36.190Z,945.34
2018-12-16T00:31:36.070Z,945.36
2018-12-16T00:32:35.968Z,945.35
2018-12-16T00:33:35.861Z,945.29
2018-12-16T00:34:35.760Z,945.29
2018-12-16T00:35:35.669Z,945.31
2018-12-16T00:36:35.548Z,945.27
2018-12-16T00:37:35.443Z,945.24
2018-12-16T00:38:35.338Z,945.27
2018-12-16T00:39:35.237Z,945.26
2018-12-16T00:40:35.147Z,945.20
2018-12-16T00:41:35.021Z,945.21
2018-12-16T00:42:34.916Z,945.20
2018-12-16T00:43:34.811Z,945.18
2018-12-16T00:44:34.713Z,945.16
2018-12-16T00:45:34.617Z,945.19
2018-12-16T00:46:34.604Z,945.13
2018-12-16T00:47:34.395Z,945.11
2018-12-16T00:48:34.286Z,945.11
2018-12-16T00:49:34.193Z,945.11
2018-12-16T00:50:34.094Z,945.07
2018-12-16T00:51:33.972Z,945.08
2018-12-16T00:52:36.658Z,945.07
2018-12-16T00:53:33.863Z,945.13
2018-12-16T00:54:33.657Z,945.15
2018-12-16T00:55:33.570Z,945.11
2018-12-16T00:56:33.445Z,945.16
2018-12-16T00:57:33.342Z,945.10
2018-12-16T00:58:33.242Z,945.10
2018-12-16T00:59:33.130Z,945.09
2018-12-16T01:00:33.151Z,945.14
2018-12-16T01:01:32.920Z,945.12
2018-12-16T01:02:32.817Z,945.14
2018-12-16T01:03:32.710Z,945.12
2018-12-16T01:04:32.609Z,945.11
2018-12-16T01:05:32.516Z,945.07
2018-12-16T01:06:32.397Z,945.14
2018-12-16T01:07:32.396Z,945.05
2018-12-16T01:08:32.192Z,945.03
2018-12-16T01:09:32.083Z,945.12
2018-12-16T01:10:31.993Z,945.13
2018-12-16T01:11:31.872Z,945.05
2018-12-16T01:12:31.765Z,945.10
2018-12-16T01:13:31.659Z,945.09
2018-12-16T01:14:31.662Z,945.12
2018-12-16T01:15:31.519Z,945.11
2018-12-16T01:16:31.364Z,945.10
2018-12-16T01:17:31.243Z,945.11
2018-12-16T01:18:31.137Z,945.16
2018-12-16T01:19:31.029Z,945.15
2018-12-16T01:20:30.930Z,945.16
2018-12-16T01:21:30.939Z,945.11
2018-12-16T01:22:30.715Z,945.16
2018-12-16T01:23:30.616Z,945.12
2018-12-16T01:24:30.508Z,945.15
2018-12-16T01:25:30.404Z,945.11
2018-12-16T01:26:30.310Z,945.12
2018-12-16T01:27:30.188Z,945.07
2018-12-16T01:28:30.183Z,945.14
2018-12-16T01:29:29.982Z,945.11
2018-12-16T01:30:29.878Z,945.23
2018-12-16T01:31:29.784Z,945.09
2018-12-16T01:32:29.666Z,945.06
2018-12-16T01:33:29.561Z,945.05
2018-12-16T01:34:29.455Z,945.03
2018-12-16T01:35:29.464Z,944.99
2018-12-16T01:36:29.261Z,945.02
2018-12-16T01:37:29.140Z,945.09
2018-12-16T01:38:29.034Z,945.11
2018-12-16T01:39:28.929Z,945.04
2018-12-16T01:40:28.821Z,945.00
2018-12-16T01:41:28.736Z,945.05
2018-12-16T01:42:28.718Z,944.99
2018-12-16T01:43:28.509Z,944.98
2018-12-16T01:44:28.399Z,944.97
2018-12-16T01:45:28.295Z,944.98
2018-12-16T01:46:28.210Z,944.97
2018-12-16T01:47:28.090Z,944.95
2018-12-16T01:48:27.980Z,944.95
2018-12-16T01:49:27.979Z,944.95
2018-12-16T01:50:27.773Z,944.93
2018-12-16T01:51:27.681Z,944.93
2018-12-16T01:52:27.565Z,944.89
2018-12-16T01:53:27.460Z,944.87
2018-12-16T01:54:27.351Z,944.88
2018-12-16T01:55:27.246Z,944.79
2018-12-16T01:56:27.159Z,944.80
2018-12-16T01:57:27.037Z,944.72
2018-12-16T01:58:26.931Z,944.79
2018-12-16T01:59:26.827Z,944.71
2018-12-16T02:00:26.723Z,944.68
2018-12-16T02:01:26.634Z,944.82
2018-12-16T02:02:26.508Z,944.68
2018-12-16T02:03:26.407Z,944.62
2018-12-16T02:04:26.301Z,944.67
2018-12-16T02:05:26.196Z,944.63
2018-12-16T02:06:26.110Z,944.67
2018-12-16T02:07:25.986Z,944.65
2018-12-16T02:08:26.257Z,944.65
2018-12-16T02:09:25.773Z,944.62
2018-12-16T02:10:25.672Z,944.61
2018-12-16T02:11:25.583Z,944.61
2018-12-16T02:12:25.458Z,944.58
2018-12-16T02:13:25.356Z,944.57
2018-12-16T02:14:25.250Z,944.50
2018-12-16T02:15:25.145Z,944.49
2018-12-16T02:16:25.056Z,944.45
2018-12-16T02:17:24.932Z,944.41
2018-12-16T02:18:24.827Z,944.41
2018-12-16T02:19:24.726Z,944.41
2018-12-16T02:20:24.620Z,944.45
2018-12-16T02:21:24.547Z,944.42
2018-12-16T02:22:24.407Z,944.40
2018-12-16T02:23:24.305Z,944.37
2018-12-16T02:24:24.200Z,944.34
2018-12-16T02:25:24.091Z,944.32
2018-12-16T02:26:24.004Z,944.33
2018-12-16T02:27:23.880Z,944.33
2018-12-16T02:28:23.781Z,944.37
2018-12-16T02:29:23.674Z,944.32
2018-12-16T02:30:23.567Z,944.27
2018-12-16T02:31:23.479Z,944.25
2018-12-16T02:32:23.359Z,944.25
2018-12-16T02:33:23.253Z,944.24
2018-12-16T02:34:23.150Z,944.26
2018-12-16T02:35:23.040Z,944.21
2018-12-16T02:36:22.951Z,944.13
2018-12-16T02:37:22.831Z,944.15
2018-12-16T02:38:22.730Z,944.19
2018-12-16T02:39:22.620Z,944.11
2018-12-16T02:40:22.514Z,944.12
2018-12-16T02:41:22.427Z,944.12
2018-12-16T02:42:22.307Z,944.22
2018-12-16T02:43:22.202Z,944.21
2018-12-16T02:44:22.096Z,944.12
2018-12-16T02:45:21.997Z,944.16
2018-12-16T02:46:21.898Z,944.13
2018-12-16T02:47:21.775Z,944.15
2018-12-16T02:48:21.677Z,944.15
2018-12-16T02:49:21.571Z,944.11
2018-12-16T02:50:21.461Z,944.08
2018-12-16T02:51:21.374Z,944.06
2018-12-16T02:52:21.254Z,944.07
2018-12-16T02:53:21.149Z,944.07
2018-12-16T02:54:21.043Z,944.08
2018-12-16T02:55:20.937Z,943.98
2018-12-16T02:56:20.849Z,943.98
2018-12-16T02:57:20.730Z,943.98
2018-12-16T02:58:20.621Z,943.95
2018-12-16T02:59:20.513Z,943.90
2018-12-16T03:00:20.410Z,943.86
2018-12-16T03:01:20.305Z,943.84
2018-12-16T03:02:20.217Z,943.81
2018-12-16T03:03:20.092Z,943.87
2018-12-16T03:04:19.994Z,943.82
2018-12-16T03:05:19.890Z,943.81
2018-12-16T03:06:19.781Z,943.82
2018-12-16T03:07:19.686Z,943.82
2018-12-16T03:08:19.565Z,943.81
2018-12-16T03:09:19.462Z,943.74
2018-12-16T03:10:19.355Z,943.80
2018-12-16T03:11:19.255Z,943.80
2018-12-16T03:12:19.161Z,943.73
2018-12-16T03:13:19.038Z,943.80
2018-12-16T03:14:18.944Z,943.72
2018-12-16T03:15:18.838Z,943.62
2018-12-16T03:16:18.743Z,943.66
2018-12-16T03:17:18.633Z,943.60
2018-12-16T03:18:18.514Z,943.58
2018-12-16T03:19:18.412Z,943.59
2018-12-16T03:20:18.301Z,943.52
2018-12-16T03:21:18.201Z,943.50
2018-12-16T03:22:18.113Z,943.48
2018-12-16T03:23:17.987Z,943.47
2018-12-16T03:24:17.879Z,943.49
2018-12-16T03:25:17.776Z,943.46
2018-12-16T03:26:17.674Z,943.47
2018-12-16T03:27:17.585Z,943.42
2018-12-16T03:28:17.463Z,943.44
2018-12-16T03:29:17.355Z,943.42
2018-12-16T03:30:17.247Z,943.33
2018-12-16T03:31:17.147Z,943.37
2018-12-16T03:32:17.057Z,943.32
2018-12-16T03:33:16.931Z,943.29
2018-12-16T03:34:17.130Z,943.26
2018-12-16T03:35:16.724Z,943.29
2018-12-16T03:36:16.613Z,943.29
2018-12-16T03:37:16.530Z,943.26
2018-12-16T03:38:16.403Z,943.33
2018-12-16T03:39:16.303Z,943.30
2018-12-16T03:40:16.196Z,943.31
2018-12-16T03:41:16.196Z,943.27
2018-12-16T03:42:16.020Z,943.35
2018-12-16T03:43:15.880Z,943.30
2018-12-16T03:44:15.777Z,943.34
2018-12-16T03:45:15.668Z,943.37
2018-12-16T03:46:15.561Z,943.44
2018-12-16T03:47:15.470Z,943.38
2018-12-16T03:48:15.450Z,943.37
2018-12-16T03:49:15.246Z,943.34
2018-12-16T03:50:15.139Z,943.27
2018-12-16T03:51:15.049Z,943.25
2018-12-16T03:52:14.946Z,943.30
2018-12-16T03:53:19.850Z,943.25
2018-12-16T03:54:14.718Z,943.23
2018-12-16T03:55:14.713Z,943.18
2018-12-16T03:56:14.507Z,943.06
2018-12-16T03:57:14.419Z,943.12
2018-12-16T03:58:14.297Z,943.11
2018-12-16T03:59:14.187Z,943.11
2018-12-16T04:00:14.086Z,943.12
2018-12-16T04:01:13.979Z,943.24
2018-12-16T04:02:13.995Z,943.10
2018-12-16T04:03:13.770Z,943.10
2018-12-16T04:04:13.664Z,943.07
2018-12-16T04:05:13.559Z,943.13
2018-12-16T04:06:13.451Z,943.04
2018-12-16T04:07:13.364Z,943.02
2018-12-16T04:08:13.244Z,943.04
2018-12-16T04:09:13.259Z,943.01
2018-12-16T04:10:13.028Z,943.06
2018-12-16T04:11:12.923Z,942.99
2018-12-16T04:12:12.832Z,943.13
2018-12-16T04:13:12.733Z,943.01
2018-12-16T04:14:12.607Z,942.97
2018-12-16T04:15:12.500Z,942.94
2018-12-16T04:16:12.504Z,942.92
2018-12-16T04:17:12.313Z,942.95
2018-12-16T04:18:12.186Z,942.99
2018-12-16T04:19:12.080Z,942.90
2018-12-16T04:20:11.976Z,942.92
2018-12-16T04:21:11.870Z,942.97
2018-12-16T04:22:11.777Z,942.86
2018-12-16T04:23:11.755Z,942.87
2018-12-16T04:24:11.553Z,942.86
2018-12-16T04:25:11.451Z,942.80
2018-12-16T04:26:11.350Z,942.85
2018-12-16T04:27:11.303Z,942.85
2018-12-16T04:28:11.128Z,942.87
2018-12-16T04:29:11.021Z,942.93
2018-12-16T04:30:11.016Z,942.93
2018-12-16T04:31:10.815Z,942.88
2018-12-16T04:32:10.727Z,942.90
2018-12-16T04:33:10.603Z,942.81
2018-12-16T04:34:10.498Z,942.82
2018-12-16T04:35:10.389Z,942.82
2018-12-16T04:36:10.283Z,942.84
2018-12-16T04:37:10.302Z,942.78
2018-12-16T04:38:10.078Z,942.78
2018-12-16T04:39:09.966Z,942.77
2018-12-16T04:40:09.863Z,942.80
2018-12-16T04:41:09.755Z,942.80
2018-12-16T04:42:09.654Z,942.84
2018-12-16T04:43:09.560Z,942.81
2018-12-16T04:44:09.545Z,942.83
2018-12-16T04:45:09.343Z,942.81
2018-12-16T04:46:09.233Z,942.79
2018-12-16T04:47:09.140Z,942.75
2018-12-16T04:48:09.015Z,942.83
2018-12-16T04:49:08.913Z,942.70
2018-12-16T04:50:08.808Z,942.66
2018-12-16T04:51:08.799Z,942.68
2018-12-16T04:52:08.599Z,942.73
2018-12-16T04:53:08.505Z,942.65
2018-12-16T04:54:08.387Z,942.66
2018-12-16T04:55:08.290Z,942.67
2018-12-16T04:56:08.171Z,942.59
2018-12-16T04:57:08.068Z,942.60
2018-12-16T04:58:07.978Z,942.67
2018-12-16T04:59:07.858Z,942.57
2018-12-16T05:00:07.752Z,942.65
2018-12-16T05:01:07.646Z,942.64
2018-12-16T05:02:07.539Z,942.68
2018-12-16T05:03:07.453Z,942.63
2018-12-16T05:04:07.330Z,942.62
2018-12-16T05:05:07.222Z,942.59
2018-12-16T05:06:07.118Z,942.57
2018-12-16T05:07:07.017Z,942.56
2018-12-16T05:08:06.928Z,942.56
2018-12-16T05:09:06.803Z,942.55
2018-12-16T05:10:06.696Z,942.51
2018-12-16T05:11:06.592Z,942.46
2018-12-16T05:12:06.496Z,942.46
2018-12-16T05:13:06.399Z,942.57
2018-12-16T05:14:06.275Z,942.43
2018-12-16T05:15:06.170Z,942.38
2018-12-16T05:16:06.069Z,942.40
2018-12-16T05:17:05.968Z,942.38
2018-12-16T05:18:05.867Z,942.41
2018-12-16T05:19:05.746Z,942.36
2018-12-16T05:20:05.647Z,942.28
2018-12-16T05:21:05.536Z,942.26
2018-12-16T05:22:05.428Z,942.25
2018-12-16T05:23:05.340Z,942.24
2018-12-16T05:24:05.222Z,942.21
2018-12-16T05:25:05.119Z,942.23
2018-12-16T05:26:05.005Z,942.23
2018-12-16T05:27:04.906Z,942.27
2018-12-16T05:28:04.817Z,942.23
2018-12-16T05:29:04.690Z,942.17
2018-12-16T05:30:04.584Z,942.25
2018-12-16T05:31:04.483Z,942.18
2018-12-16T05:32:04.373Z,942.09
2018-12-16T05:33:04.290Z,942.15
2018-12-16T05:34:04.164Z,942.17
2018-12-16T05:35:04.061Z,942.15
2018-12-16T05:36:03.954Z,942.12
2018-12-16T05:37:03.848Z,942.05
2018-12-16T05:38:03.779Z,942.20
2018-12-16T05:39:03.636Z,941.98
2018-12-16T05:40:03.534Z,942.09
2018-12-16T05:41:03.423Z,942.01
2018-12-16T05:42:03.324Z,941.98
2018-12-16T05:43:03.229Z,941.90
2018-12-16T05:44:03.106Z,942.03
2018-12-16T05:45:03.002Z,941.88
2018-12-16T05:46:02.895Z,941.88
2018-12-16T05:47:02.792Z,941.84
2018-12-16T05:48:02.698Z,941.96
2018-12-16T05:49:02.579Z,941.91
2018-12-16T05:50:02.472Z,941.94
2018-12-16T05:51:02.371Z,941.99
2018-12-16T05:52:02.265Z,941.99
2018-12-16T05:53:02.170Z,942.06
2018-12-16T05:54:02.051Z,942.17
2018-12-16T05:55:01.943Z,942.09
2018-12-16T05:56:01.838Z,942.07
2018-12-16T05:57:01.732Z,942.13
2018-12-16T05:58:01.641Z,942.10
2018-12-16T05:59:01.517Z,942.11
2018-12-16T06:00:01.414Z,942.05
2018-12-16T06:01:01.309Z,942.03
2018-12-16T06:02:01.199Z,942.03
2018-12-16T06:03:01.113Z,942.03
2018-12-16T06:04:00.992Z,941.96
2018-12-16T06:05:00.883Z,942.03
2018-12-16T06:06:00.779Z,941.97
2018-12-16T06:07:00.670Z,941.97
2018-12-16T06:08:00.849Z,942.01
2018-12-16T06:09:00.463Z,942.00
2018-12-16T06:10:00.356Z,942.04
2018-12-16T06:11:00.250Z,941.97
2018-12-16T06:12:00.145Z,942.03
2018-12-16T06:13:00.054Z,941.94
2018-12-16T06:14:00.030Z,941.97
2018-12-16T06:14:59.825Z,941.95
2018-12-16T06:15:59.718Z,941.90
2018-12-16T06:16:59.616Z,942.00
2018-12-16T06:17:59.529Z,941.91
2018-12-16T06:18:59.404Z,942.01
2018-12-16T06:19:59.295Z,941.98
2018-12-16T06:20:59.195Z,941.98
2018-12-16T06:21:59.084Z,941.99
2018-12-16T06:22:58.998Z,941.90
2018-12-16T06:23:58.876Z,941.87
2018-12-16T06:24:58.782Z,941.92
2018-12-16T06:25:58.660Z,941.97
2018-12-16T06:26:58.556Z,941.86
2018-12-16T06:27:58.551Z,941.90
2018-12-16T06:28:58.363Z,941.86
2018-12-16T06:29:58.243Z,941.78
2018-12-16T06:30:58.132Z,941.83
2018-12-16T06:31:58.031Z,941.81
2018-12-16T06:32:57.942Z,941.75
2018-12-16T06:33:57.832Z,941.78
2018-12-16T06:34:57.829Z,941.81
2018-12-16T06:35:57.606Z,941.74
2018-12-16T06:36:57.500Z,941.77
2018-12-16T06:37:57.396Z,941.73
2018-12-16T06:38:57.304Z,941.70
2018-12-16T06:39:57.184Z,941.75
2018-12-16T06:40:57.075Z,941.80
2018-12-16T06:41:57.078Z,941.70
2018-12-16T06:42:56.869Z,941.71
2018-12-16T06:43:56.791Z,941.73
2018-12-16T06:44:56.656Z,941.78
2018-12-16T06:45:56.546Z,941.77
2018-12-16T06:46:56.440Z,941.70
2018-12-16T06:47:56.342Z,941.72
2018-12-16T06:48:56.349Z,941.68
2018-12-16T06:49:56.127Z,941.75
2018-12-16T06:50:56.024Z,941.70
2018-12-16T06:51:55.916Z,941.66
2018-12-16T06:52:55.810Z,941.71
2018-12-16T06:54:02.146Z,941.72
2018-12-16T06:54:55.598Z,941.69
2018-12-16T06:55:55.589Z,941.77
2018-12-16T06:56:55.390Z,941.59
2018-12-16T06:57:55.281Z,941.64
2018-12-16T06:58:55.191Z,941.68
2018-12-16T06:59:55.067Z,941.59
2018-12-16T07:00:54.967Z,941.72
2018-12-16T07:01:54.858Z,941.76
2018-12-16T07:02:54.847Z,941.72
2018-12-16T07:03:54.659Z,941.81
2018-12-16T07:04:54.537Z,941.76
2018-12-16T07:05:54.431Z,941.76
2018-12-16T07:06:54.332Z,941.74
2018-12-16T07:07:54.224Z,941.68
2018-12-16T07:08:54.137Z,941.75
2018-12-16T07:09:54.116Z,941.74
2018-12-16T07:10:53.906Z,941.67
2018-12-16T07:11:53.801Z,941.70
2018-12-16T07:12:53.716Z,941.73
2018-12-16T07:13:53.616Z,941.74
2018-12-16T07:14:53.483Z,941.81
2018-12-16T07:15:53.386Z,941.71
2018-12-16T07:16:53.375Z,941.67
2018-12-16T07:17:53.167Z,941.70
2018-12-16T07:18:53.077Z,941.73
2018-12-16T07:19:52.976Z,941.78
2018-12-16T07:20:52.846Z,941.77
2018-12-16T07:21:52.742Z,941.70
2018-12-16T07:22:52.632Z,941.72
2018-12-16T07:23:52.655Z,941.77
2018-12-16T07:24:52.425Z,941.68
2018-12-16T07:25:52.321Z,941.77
2018-12-16T07:26:52.215Z,941.91
2018-12-16T07:27:52.113Z,941.78
2018-12-16T07:28:52.020Z,941.81
2018-12-16T07:29:51.897Z,941.95
2018-12-16T07:30:51.892Z,941.76
2018-12-16T07:31:51.704Z,941.79
2018-12-16T07:32:51.578Z,941.78
2018-12-16T07:33:51.497Z,941.83
2018-12-16T07:34:51.366Z,941.84
2018-12-16T07:35:51.264Z,941.83
2018-12-16T07:36:51.170Z,941.82
2018-12-16T07:37:51.151Z,941.79
2018-12-16T07:38:50.977Z,941.85
2018-12-16T07:39:50.857Z,941.88
2018-12-16T07:40:51.538Z,941.90
2018-12-16T07:41:50.649Z,941.89
2018-12-16T07:42:50.556Z,941.92
2018-12-16T07:43:50.530Z,942.03
2018-12-16T07:44:50.313Z,941.91
2018-12-16T07:45:50.223Z,941.94
2018-12-16T07:46:50.102Z,941.96
2018-12-16T07:47:49.994Z,941.85
2018-12-16T07:48:49.906Z,941.85
2018-12-16T07:49:49.811Z,941.88
2018-12-16T07:50:49.696Z,941.88
2018-12-16T07:51:49.570Z,941.92
2018-12-16T07:52:49.467Z,942.02
2018-12-16T07:53:49.376Z,942.00
2018-12-16T07:54:49.260Z,941.83
2018-12-16T07:55:49.148Z,941.85
2018-12-16T07:56:49.044Z,941.88
2018-12-16T07:57:48.938Z,941.84
2018-12-16T07:58:48.872Z,941.86
2018-12-16T07:59:48.724Z,941.85
2018-12-16T08:00:48.628Z,941.84
2018-12-16T08:01:48.513Z,941.77
2018-12-16T08:02:48.409Z,941.71
2018-12-16T08:03:48.319Z,941.74
2018-12-16T08:04:48.195Z,941.67
2018-12-16T08:05:48.127Z,941.76
2018-12-16T08:06:47.991Z,941.60
2018-12-16T08:07:47.885Z,941.61
2018-12-16T08:08:47.791Z,941.65
2018-12-16T08:09:47.672Z,941.55
2018-12-16T08:10:47.563Z,941.60
2018-12-16T08:11:47.458Z,941.57
2018-12-16T08:12:47.352Z,941.41
2018-12-16T08:13:47.265Z,941.43
2018-12-16T08:14:47.139Z,941.47
2018-12-16T08:15:47.038Z,941.44
2018-12-16T08:16:46.932Z,941.37
2018-12-16T08:17:46.826Z,941.38
2018-12-16T08:18:46.736Z,941.35
2018-12-16T08:19:46.615Z,941.48
2018-12-16T08:20:46.509Z,941.43
2018-12-16T08:21:46.402Z,941.31
2018-12-16T08:22:46.299Z,941.34
2018-12-16T08:23:46.211Z,941.36
2018-12-16T08:24:46.089Z,941.31
2018-12-16T08:25:45.978Z,941.34
2018-12-16T08:26:45.877Z,941.30
2018-12-16T08:27:45.771Z,941.35
2018-12-16T08:28:45.669Z,941.32
2018-12-16T08:29:45.576Z,941.29
2018-12-16T08:30:45.453Z,941.33
2018-12-16T08:31:45.345Z,941.23
2018-12-16T08:32:45.245Z,941.13
2018-12-16T08:33:45.139Z,941.28
2018-12-16T08:34:45.046Z,941.23
2018-12-16T08:35:44.924Z,941.28
2018-12-16T08:36:44.821Z,941.19
2018-12-16T08:37:44.716Z,941.27
2018-12-16T08:38:44.607Z,941.21
2018-12-16T08:39:44.531Z,941.11
2018-12-16T08:40:44.401Z,941.15
2018-12-16T08:41:44.290Z,941.24
2018-12-16T08:42:44.186Z,941.05
2018-12-16T08:43:44.085Z,941.12
2018-12-16T08:44:43.991Z,941.07
2018-12-16T08:45:43.874Z,941.17
2018-12-16T08:46:43.764Z,941.16
2018-12-16T08:47:43.947Z,941.04
2018-12-16T08:48:43.556Z,941.24
2018-12-16T08:49:43.463Z,941.22
2018-12-16T08:50:43.341Z,941.21
2018-12-16T08:51:43.243Z,941.14
2018-12-16T08:52:43.136Z,941.14
2018-12-16T08:53:43.026Z,941.13
2018-12-16T08:54:43.039Z,941.31
2018-12-16T08:55:42.817Z,941.27
2018-12-16T08:56:42.711Z,941.15
2018-12-16T08:57:42.605Z,941.31
2018-12-16T08:58:42.512Z,941.27
2018-12-16T08:59:42.411Z,941.28
2018-12-16T09:00:42.295Z,941.36
2018-12-16T09:01:42.180Z,941.31
2018-12-16T09:02:42.082Z,941.28
2018-12-16T09:03:41.974Z,941.23
2018-12-16T09:04:41.884Z,941.20
2018-12-16T09:05:41.761Z,941.21
2018-12-16T09:06:41.659Z,941.34
2018-12-16T09:07:41.551Z,941.26
2018-12-16T09:08:41.447Z,941.31
2018-12-16T09:09:41.358Z,941.25
2018-12-16T09:10:41.238Z,941.25
2018-12-16T09:11:41.127Z,941.37
2018-12-16T09:12:41.027Z,941.46
2018-12-16T09:13:40.920Z,941.45
2018-12-16T09:14:40.831Z,941.51
2018-12-16T09:15:40.810Z,941.52
2018-12-16T09:16:40.628Z,941.52
2018-12-16T09:17:40.498Z,941.57
2018-12-16T09:18:40.392Z,941.59
2018-12-16T09:19:40.306Z,941.64
2018-12-16T09:20:40.181Z,941.61
2018-12-16T09:21:40.080Z,941.59
2018-12-16T09:22:39.973Z,941.70
2018-12-16T09:23:39.869Z,941.69
2018-12-16T09:24:39.778Z,941.71
2018-12-16T09:25:39.661Z,941.65
2018-12-16T09:26:39.550Z,941.60
2018-12-16T09:27:39.447Z,941.61
2018-12-16T09:28:39.345Z,941.52
2018-12-16T09:29:39.355Z,941.51
2018-12-16T09:30:39.133Z,941.47
2018-12-16T09:31:39.031Z,941.36
2018-12-16T09:32:38.924Z,941.33
2018-12-16T09:33:38.814Z,941.24
2018-12-16T09:34:38.753Z,941.31
2018-12-16T09:35:38.610Z,941.29
2018-12-16T09:36:38.607Z,941.31
2018-12-16T09:37:38.396Z,941.31
2018-12-16T09:38:38.289Z,941.45
2018-12-16T09:39:38.205Z,941.47
2018-12-16T09:40:38.079Z,941.44
2018-12-16T09:41:37.972Z,941.36
2018-12-16T09:42:37.872Z,941.37
2018-12-16T09:43:37.882Z,941.32
2018-12-16T09:44:37.675Z,941.34
2018-12-16T09:45:37.553Z,941.34
2018-12-16T09:46:37.453Z,941.41
2018-12-16T09:47:37.346Z,941.47
2018-12-16T09:48:37.242Z,941.40
2018-12-16T09:49:37.150Z,941.43
2018-12-16T09:50:37.133Z,941.58
2018-12-16T09:51:36.925Z,941.43
2018-12-16T09:52:36.819Z,941.37
2018-12-16T09:53:36.715Z,941.35
2018-12-16T09:54:36.627Z,941.38
2018-12-16T09:55:36.506Z,941.35
2018-12-16T09:56:36.400Z,941.31
2018-12-16T09:57:36.391Z,941.38
2018-12-16T09:58:36.192Z,941.35
2018-12-16T09:59:36.143Z,941.38
2018-12-16T10:00:35.982Z,941.39
2018-12-16T10:01:35.879Z,941.32
2018-12-16T10:02:35.770Z,941.35
2018-12-16T10:03:35.665Z,941.28
2018-12-16T10:04:35.670Z,941.32
2018-12-16T10:05:35.468Z,941.21
2018-12-16T10:06:35.353Z,941.32
2018-12-16T10:07:35.246Z,941.35
2018-12-16T10:08:35.139Z,941.23
2018-12-16T10:09:35.037Z,941.28
2018-12-16T10:10:34.948Z,941.22
2018-12-16T10:11:34.919Z,941.24
2018-12-16T10:12:34.718Z,941.17
2018-12-16T10:13:34.615Z,941.24
2018-12-16T10:14:34.508Z,941.26
2018-12-16T10:15:34.428Z,941.15
2018-12-16T10:16:34.300Z,941.16
2018-12-16T10:17:34.194Z,941.14
2018-12-16T10:18:34.244Z,941.16
2018-12-16T10:19:33.983Z,941.20
2018-12-16T10:20:33.898Z,941.23
2018-12-16T10:21:33.774Z,941.28
2018-12-16T10:22:33.669Z,941.31
2018-12-16T10:23:33.565Z,941.27
2018-12-16T10:24:33.458Z,941.28
2018-12-16T10:25:33.478Z,941.26
2018-12-16T10:26:33.255Z,941.31
2018-12-16T10:27:33.145Z,941.36
2018-12-16T10:28:33.038Z,941.38
2018-12-16T10:29:32.933Z,941.38
2018-12-16T10:30:32.844Z,941.32
2018-12-16T10:31:32.723Z,941.34
2018-12-16T10:32:32.734Z,941.28
2018-12-16T10:33:32.512Z,941.26
2018-12-16T10:34:32.409Z,941.33
2018-12-16T10:35:32.319Z,941.24
2018-12-16T10:36:32.197Z,941.33
2018-12-16T10:37:32.095Z,941.26
2018-12-16T10:38:31.986Z,941.27
2018-12-16T10:39:31.885Z,941.26
2018-12-16T10:40:31.793Z,941.21
2018-12-16T10:41:31.671Z,941.26
2018-12-16T10:42:31.567Z,941.14
2018-12-16T10:43:31.463Z,941.17
2018-12-16T10:44:31.357Z,941.08
2018-12-16T10:45:31.269Z,941.02
2018-12-16T10:46:31.153Z,941.02
2018-12-16T10:47:31.047Z,940.99
2018-12-16T10:48:30.941Z,941.03
2018-12-16T10:49:30.834Z,940.99
2018-12-16T10:50:30.744Z,941.00
2018-12-16T10:51:30.624Z,941.02
2018-12-16T10:52:30.520Z,941.00
2018-12-16T10:53:30.412Z,940.97
2018-12-16T10:54:30.310Z,941.08
2018-12-16T10:55:30.218Z,941.06
2018-12-16T10:56:30.097Z,941.01
2018-12-16T10:57:29.995Z,941.07
2018-12-16T10:58:29.887Z,941.10
2018-12-16T10:59:29.786Z,941.09
2018-12-16T11:00:29.700Z,941.11
2018-12-16T11:01:29.573Z,941.10
2018-12-16T11:02:29.471Z,941.05
2018-12-16T11:03:29.365Z,941.06
2018-12-16T11:04:29.266Z,941.05
2018-12-16T11:05:29.174Z,941.05
2018-12-16T11:06:29.051Z,941.09
2018-12-16T11:07:28.949Z,941.02
2018-12-16T11:08:28.845Z,941.00
2018-12-16T11:09:28.736Z,940.93
2018-12-16T11:10:28.652Z,940.86
2018-12-16T11:11:28.527Z,940.89
2018-12-16T11:12:28.424Z,940.87
2018-12-16T11:13:28.322Z,940.86
2018-12-16T11:14:28.214Z,940.76
2018-12-16T11:15:28.131Z,940.69
2018-12-16T11:16:28.024Z,940.76
2018-12-16T11:17:27.907Z,940.79
2018-12-16T11:18:27.799Z,940.83
2018-12-16T11:19:27.693Z,940.75
2018-12-16T11:20:27.606Z,940.78
2018-12-16T11:21:27.484Z,940.62
2018-12-16T11:22:27.379Z,940.66
2018-12-16T11:23:27.281Z,940.66
2018-12-16T11:24:27.173Z,940.71
2018-12-16T11:25:27.081Z,940.66
2018-12-16T11:26:27.066Z,940.65
2018-12-16T11:27:26.857Z,940.65
2018-12-16T11:28:26.753Z,940.63
2018-12-16T11:29:26.646Z,940.57
2018-12-16T11:30:26.558Z,940.61
2018-12-16T11:31:26.438Z,940.61
2018-12-16T11:32:26.332Z,940.54
2018-12-16T11:33:26.226Z,940.57
2018-12-16T11:34:26.124Z,940.52
2018-12-16T11:35:26.032Z,940.36
2018-12-16T11:36:25.916Z,940.43
2018-12-16T11:37:25.809Z,940.34
2018-12-16T11:38:25.705Z,940.32
2018-12-16T11:39:25.604Z,940.35
2018-12-16T11:40:25.514Z,940.31
2018-12-16T11:41:25.390Z,940.26
2018-12-16T11:42:25.285Z,940.38
2018-12-16T11:43:25.184Z,940.14
2018-12-16T11:44:25.081Z,940.37
2018-12-16T11:45:24.993Z,940.10
2018-12-16T11:46:24.869Z,940.17
2018-12-16T11:47:24.763Z,940.15
2018-12-16T11:48:24.658Z,940.10
2018-12-16T11:49:24.553Z,940.27
2018-12-16T11:50:24.451Z,940.22
2018-12-16T11:51:24.363Z,940.06
2018-12-16T11:52:25.032Z,940.16
2018-12-16T11:53:24.136Z,940.09
2018-12-16T11:54:24.031Z,940.21
2018-12-16T11:55:23.927Z,940.14
2018-12-16T11:56:23.844Z,940.21
2018-12-16T11:57:23.714Z,940.12
2018-12-16T11:58:23.610Z,940.18
2018-12-16T11:59:23.509Z,940.18
2018-12-16T12:00:23.406Z,940.21
2018-12-16T12:01:23.322Z,940.16
2018-12-16T12:02:23.191Z,940.10
2018-12-16T12:03:23.087Z,940.07
2018-12-16T12:04:22.993Z,940.04
2018-12-16T12:05:22.881Z,940.18
2018-12-16T12:06:22.793Z,940.11
2018-12-16T12:07:22.669Z,940.04
2018-12-16T12:08:22.562Z,940.05
2018-12-16T12:09:22.458Z,940.01
2018-12-16T12:10:22.354Z,940.07
2018-12-16T12:11:22.264Z,940.07
2018-12-16T12:12:22.145Z,940.08
2018-12-16T12:13:22.037Z,940.15
2018-12-16T12:14:21.937Z,940.12
2018-12-16T12:15:21.831Z,940.13
2018-12-16T12:16:21.742Z,940.13
2018-12-16T12:17:21.619Z,940.18
2018-12-16T12:18:21.515Z,940.19
2018-12-16T12:19:21.409Z,940.20
2018-12-16T12:20:21.305Z,940.21
2018-12-16T12:21:21.219Z,940.25
2018-12-16T12:22:21.097Z,940.26
2018-12-16T12:23:20.996Z,940.24
2018-12-16T12:24:20.887Z,940.21
2018-12-16T12:25:20.784Z,940.27
2018-12-16T12:26:20.693Z,940.16
2018-12-16T12:27:20.613Z,940.17